LiveATC.Net - Listen to live air traffic control over the Internet! Contact for advertising information

ICAO: ENKB  IATA: KSU   Airport: Kristiansund Kvernberget Airport
City: Kristiansund
Country: Norway   Continent: Europe
ENKB METAR Weather: ENKB 291150Z 26004KT 9999 FEW044TCU 04/M01 Q0973
ENKB Flight Activity (FlightAware)
ENKB Twr/App
Feed Status: UP   Listeners: 2
Listen right in your browser - requires Flash (in browser, requires Flash)
Click here to listen with your own player (launches your MP3 player)
ENKB Twr/App Audio Archives
Kvernberget Approach121.200
Kvernberget Tower118.300


Unauthorized use prohibited. See Terms of Service

Find LiveATC Audio Streams

Airport/ARTCC Code

(e.g., 124.400, 128.75)
Site-wide search

Browse LiveATC Feeds
LiveATC Coverage Map
Top 50 LiveATC Feeds
Bad Weather Areas

Offer a LiveATC Feed
Press Inquiries

LiveATC on iPhone
LiveATC on Android

Windows Phone
Windows 8/10

LiveATC Mobile
(Mobile browser)

ATC Audio Archives
Interesting Recordings

LiveATC Forums

Home Page
Make a Donation
LiveATC Bookstore

Terms of Use
Privacy Policy

ATC/Radar Sites
U.S. ARTCC Freqs
Canadian Air Freqs


FAA Airport Status
Nat'l Airspace Status
Arrival Demand Charts

Server Software By:

Please make a donation to help us keep growing!